sensor_id;sensor_type;location;lat;lon;timestamp;P1;durP1;ratioP1;P2;durP2;ratioP2
4409;SDS011;2218;51.408;7.208;2023-02-22T00:01:11;3.67;;;3.37;;
4409;SDS011;2218;51.408;7.208;2023-02-22T00:03:47;3.27;;;3.03;;
4409;SDS011;2218;51.408;7.208;2023-02-22T00:06:17;3.50;;;3.20;;
4409;SDS011;2218;51.408;7.208;2023-02-22T00:08:49;2.90;;;2.70;;
4409;SDS011;2218;51.408;7.208;2023-02-22T00:11:17;2.50;;;2.40;;
4409;SDS011;2218;51.408;7.208;2023-02-22T00:13:46;2.97;;;2.77;;
4409;SDS011;2218;51.408;7.208;2023-02-22T00:16:15;2.97;;;2.77;;
4409;SDS011;2218;51.408;7.208;2023-02-22T00:18:44;3.10;;;2.90;;
4409;SDS011;2218;51.408;7.208;2023-02-22T00:21:11;3.07;;;2.87;;
4409;SDS011;2218;51.408;7.208;2023-02-22T00:23:41;3.37;;;3.07;;
4409;SDS011;2218;51.408;7.208;2023-02-22T00:26:11;3.03;;;2.83;;
4409;SDS011;2218;51.408;7.208;2023-02-22T00:28:43;3.47;;;3.17;;
4409;SDS011;2218;51.408;7.208;2023-02-22T00:31:13;3.00;;;2.80;;
4409;SDS011;2218;51.408;7.208;2023-02-22T00:33:41;2.70;;;2.50;;
4409;SDS011;2218;51.408;7.208;2023-02-22T00:36:09;3.20;;;2.90;;
4409;SDS011;2218;51.408;7.208;2023-02-22T00:38:38;2.80;;;2.60;;
4409;SDS011;2218;51.408;7.208;2023-02-22T00:41:06;3.37;;;3.10;;
4409;SDS011;2218;51.408;7.208;2023-02-22T00:43:34;3.00;;;2.80;;
4409;SDS011;2218;51.408;7.208;2023-02-22T00:46:03;3.10;;;2.80;;
4409;SDS011;2218;51.408;7.208;2023-02-22T00:48:30;2.90;;;2.70;;
4409;SDS011;2218;51.408;7.208;2023-02-22T00:50:57;3.10;;;2.80;;
4409;SDS011;2218;51.408;7.208;2023-02-22T00:53:24;3.20;;;3.00;;
4409;SDS011;2218;51.408;7.208;2023-02-22T00:55:51;2.90;;;2.70;;
4409;SDS011;2218;51.408;7.208;2023-02-22T00:58:19;3.00;;;2.80;;
4409;SDS011;2218;51.408;7.208;2023-02-22T01:00:48;2.87;;;2.67;;
4409;SDS011;2218;51.408;7.208;2023-02-22T01:03:17;3.17;;;2.97;;
4409;SDS011;2218;51.408;7.208;2023-02-22T01:05:45;3.17;;;2.97;;
4409;SDS011;2218;51.408;7.208;2023-02-22T01:08:13;3.10;;;2.90;;
4409;SDS011;2218;51.408;7.208;2023-02-22T01:10:42;2.90;;;2.70;;
4409;SDS011;2218;51.408;7.208;2023-02-22T01:13:11;2.77;;;2.57;;
4409;SDS011;2218;51.408;7.208;2023-02-22T01:15:39;3.00;;;2.40;;
4409;SDS011;2218;51.408;7.208;2023-02-22T01:18:09;3.20;;;3.00;;
4409;SDS011;2218;51.408;7.208;2023-02-22T01:20:42;2.80;;;2.60;;
4409;SDS011;2218;51.408;7.208;2023-02-22T01:23:13;4.13;;;3.20;;
4409;SDS011;2218;51.408;7.208;2023-02-22T01:25:41;2.80;;;2.60;;
4409;SDS011;2218;51.408;7.208;2023-02-22T01:28:10;2.70;;;2.50;;
4409;SDS011;2218;51.408;7.208;2023-02-22T01:30:38;2.70;;;2.50;;
4409;SDS011;2218;51.408;7.208;2023-02-22T01:33:05;2.87;;;2.67;;
4409;SDS011;2218;51.408;7.208;2023-02-22T01:35:34;2.90;;;2.70;;
4409;SDS011;2218;51.408;7.208;2023-02-22T01:38:06;3.00;;;2.80;;
4409;SDS011;2218;51.408;7.208;2023-02-22T01:40:34;2.90;;;2.70;;
4409;SDS011;2218;51.408;7.208;2023-02-22T01:43:13;2.60;;;2.47;;
4409;SDS011;2218;51.408;7.208;2023-02-22T01:45:47;3.10;;;2.90;;
4409;SDS011;2218;51.408;7.208;2023-02-22T01:48:22;2.67;;;2.47;;
4409;SDS011;2218;51.408;7.208;2023-02-22T01:50:56;2.60;;;2.50;;
4409;SDS011;2218;51.408;7.208;2023-02-22T01:53:30;2.73;;;2.53;;
4409;SDS011;2218;51.408;7.208;2023-02-22T01:56:04;2.80;;;2.60;;
4409;SDS011;2218;51.408;7.208;2023-02-22T01:58:34;3.00;;;2.80;;
4409;SDS011;2218;51.408;7.208;2023-02-22T02:01:06;3.00;;;2.80;;
4409;SDS011;2218;51.408;7.208;2023-02-22T02:03:35;2.50;;;2.40;;
4409;SDS011;2218;51.408;7.208;2023-02-22T02:06:07;2.27;;;2.17;;
4409;SDS011;2218;51.408;7.208;2023-02-22T02:08:43;2.63;;;2.43;;
4409;SDS011;2218;51.408;7.208;2023-02-22T02:11:19;2.87;;;2.67;;
4409;SDS011;2218;51.408;7.208;2023-02-22T02:13:49;2.37;;;2.20;;
4409;SDS011;2218;51.408;7.208;2023-02-22T02:16:19;2.20;;;2.10;;
4409;SDS011;2218;51.408;7.208;2023-02-22T02:18:47;2.00;;;1.90;;
4409;SDS011;2218;51.408;7.208;2023-02-22T02:24:53;2.47;;;2.27;;
4409;SDS011;2218;51.408;7.208;2023-02-22T02:27:57;2.17;;;2.03;;
4409;SDS011;2218;51.408;7.208;2023-02-22T02:31:08;2.20;;;2.10;;
4409;SDS011;2218;51.408;7.208;2023-02-22T02:34:07;2.30;;;2.10;;
4409;SDS011;2218;51.408;7.208;2023-02-22T02:36:46;2.10;;;2.00;;
4409;SDS011;2218;51.408;7.208;2023-02-22T02:39:26;2.30;;;2.20;;
4409;SDS011;2218;51.408;7.208;2023-02-22T02:42:01;2.10;;;2.00;;
4409;SDS011;2218;51.408;7.208;2023-02-22T02:44:35;2.50;;;2.40;;
4409;SDS011;2218;51.408;7.208;2023-02-22T02:47:09;2.30;;;2.20;;
4409;SDS011;2218;51.408;7.208;2023-02-22T02:49:45;2.57;;;2.37;;
4409;SDS011;2218;51.408;7.208;2023-02-22T02:52:20;2.03;;;1.93;;
4409;SDS011;2218;51.408;7.208;2023-02-22T02:54:52;2.00;;;1.90;;
4409;SDS011;2218;51.408;7.208;2023-02-22T02:57:21;1.70;;;1.60;;
4409;SDS011;2218;51.408;7.208;2023-02-22T02:59:48;2.40;;;2.30;;
4409;SDS011;2218;51.408;7.208;2023-02-22T03:02:20;1.87;;;1.77;;
4409;SDS011;2218;51.408;7.208;2023-02-22T03:05:10;2.20;;;2.10;;
4409;SDS011;2218;51.408;7.208;2023-02-22T03:08:00;2.03;;;1.93;;
4409;SDS011;2218;51.408;7.208;2023-02-22T03:10:42;2.10;;;2.00;;
4409;SDS011;2218;51.408;7.208;2023-02-22T03:13:24;2.17;;;2.03;;
4409;SDS011;2218;51.408;7.208;2023-02-22T03:16:03;2.00;;;1.90;;
4409;SDS011;2218;51.408;7.208;2023-02-22T03:18:48;2.07;;;1.97;;
4409;SDS011;2218;51.408;7.208;2023-02-22T03:21:24;1.90;;;1.80;;
4409;SDS011;2218;51.408;7.208;2023-02-22T03:24:00;1.87;;;1.77;;
4409;SDS011;2218;51.408;7.208;2023-02-22T03:26:40;1.90;;;1.80;;
4409;SDS011;2218;51.408;7.208;2023-02-22T03:29:14;2.00;;;1.90;;
4409;SDS011;2218;51.408;7.208;2023-02-22T03:31:49;2.27;;;2.17;;
4409;SDS011;2218;51.408;7.208;2023-02-22T03:34:26;2.20;;;2.10;;
4409;SDS011;2218;51.408;7.208;2023-02-22T03:37:01;1.93;;;1.83;;
4409;SDS011;2218;51.408;7.208;2023-02-22T03:39:40;1.70;;;1.60;;
4409;SDS011;2218;51.408;7.208;2023-02-22T03:42:11;2.10;;;2.00;;
4409;SDS011;2218;51.408;7.208;2023-02-22T03:44:45;2.00;;;1.90;;
4409;SDS011;2218;51.408;7.208;2023-02-22T03:47:17;2.00;;;1.90;;
4409;SDS011;2218;51.408;7.208;2023-02-22T03:49:54;1.73;;;1.63;;
4409;SDS011;2218;51.408;7.208;2023-02-22T03:52:33;1.87;;;1.77;;
4409;SDS011;2218;51.408;7.208;2023-02-22T03:55:02;1.80;;;1.70;;
4409;SDS011;2218;51.408;7.208;2023-02-22T03:57:35;1.73;;;1.63;;
4409;SDS011;2218;51.408;7.208;2023-02-22T04:00:09;2.00;;;1.90;;
4409;SDS011;2218;51.408;7.208;2023-02-22T04:02:39;1.67;;;1.57;;
4409;SDS011;2218;51.408;7.208;2023-02-22T04:05:10;1.73;;;1.63;;
4409;SDS011;2218;51.408;7.208;2023-02-22T04:07:40;2.00;;;1.90;;
4409;SDS011;2218;51.408;7.208;2023-02-22T04:10:07;2.00;;;1.90;;
4409;SDS011;2218;51.408;7.208;2023-02-22T04:12:36;1.90;;;1.80;;
4409;SDS011;2218;51.408;7.208;2023-02-22T04:15:05;1.57;;;1.47;;
4409;SDS011;2218;51.408;7.208;2023-02-22T04:17:35;1.60;;;1.50;;
4409;SDS011;2218;51.408;7.208;2023-02-22T04:20:03;1.60;;;1.50;;
4409;SDS011;2218;51.408;7.208;2023-02-22T04:22:42;1.87;;;1.77;;
4409;SDS011;2218;51.408;7.208;2023-02-22T04:25:09;1.80;;;1.70;;
4409;SDS011;2218;51.408;7.208;2023-02-22T04:27:36;1.83;;;1.70;;
4409;SDS011;2218;51.408;7.208;2023-02-22T04:30:04;1.53;;;1.43;;
4409;SDS011;2218;51.408;7.208;2023-02-22T04:32:34;1.50;;;1.40;;
4409;SDS011;2218;51.408;7.208;2023-02-22T04:35:01;1.80;;;1.70;;
4409;SDS011;2218;51.408;7.208;2023-02-22T04:37:29;1.40;;;1.30;;
4409;SDS011;2218;51.408;7.208;2023-02-22T04:40:01;1.67;;;1.47;;
4409;SDS011;2218;51.408;7.208;2023-02-22T04:42:33;1.40;;;1.30;;
4409;SDS011;2218;51.408;7.208;2023-02-22T04:45:00;1.40;;;1.30;;
4409;SDS011;2218;51.408;7.208;2023-02-22T04:47:28;1.70;;;1.60;;
4409;SDS011;2218;51.408;7.208;2023-02-22T04:49:56;1.30;;;1.20;;
4409;SDS011;2218;51.408;7.208;2023-02-22T04:52:24;1.60;;;1.50;;
4409;SDS011;2218;51.408;7.208;2023-02-22T04:54:52;1.73;;;1.63;;
4409;SDS011;2218;51.408;7.208;2023-02-22T04:57:20;1.40;;;1.30;;
4409;SDS011;2218;51.408;7.208;2023-02-22T04:59:48;1.40;;;1.30;;
4409;SDS011;2218;51.408;7.208;2023-02-22T05:02:16;1.50;;;1.40;;
4409;SDS011;2218;51.408;7.208;2023-02-22T05:04:44;1.10;;;1.00;;
4409;SDS011;2218;51.408;7.208;2023-02-22T05:07:11;1.37;;;1.27;;
4409;SDS011;2218;51.408;7.208;2023-02-22T05:09:38;1.20;;;1.10;;
4409;SDS011;2218;51.408;7.208;2023-02-22T05:12:05;1.27;;;1.17;;
4409;SDS011;2218;51.408;7.208;2023-02-22T05:14:34;1.40;;;1.30;;
4409;SDS011;2218;51.408;7.208;2023-02-22T05:17:01;1.30;;;1.20;;
4409;SDS011;2218;51.408;7.208;2023-02-22T05:19:29;1.20;;;1.10;;
4409;SDS011;2218;51.408;7.208;2023-02-22T05:21:55;1.00;;;1.00;;
4409;SDS011;2218;51.408;7.208;2023-02-22T05:24:22;1.10;;;1.00;;
4409;SDS011;2218;51.408;7.208;2023-02-22T05:26:49;1.20;;;1.10;;
4409;SDS011;2218;51.408;7.208;2023-02-22T05:29:17;1.27;;;1.17;;
4409;SDS011;2218;51.408;7.208;2023-02-22T05:31:46;1.13;;;1.13;;
4409;SDS011;2218;51.408;7.208;2023-02-22T05:34:14;1.13;;;1.07;;
4409;SDS011;2218;51.408;7.208;2023-02-22T05:36:41;1.30;;;1.20;;
4409;SDS011;2218;51.408;7.208;2023-02-22T05:39:08;1.40;;;1.30;;
4409;SDS011;2218;51.408;7.208;2023-02-22T05:41:36;1.20;;;1.10;;
4409;SDS011;2218;51.408;7.208;2023-02-22T05:44:03;1.27;;;1.17;;
4409;SDS011;2218;51.408;7.208;2023-02-22T05:46:30;1.10;;;1.00;;
4409;SDS011;2218;51.408;7.208;2023-02-22T05:48:58;1.10;;;1.00;;
4409;SDS011;2218;51.408;7.208;2023-02-22T05:51:25;1.37;;;1.27;;
4409;SDS011;2218;51.408;7.208;2023-02-22T05:53:52;1.13;;;1.10;;
4409;SDS011;2218;51.408;7.208;2023-02-22T05:56:20;1.07;;;1.00;;
4409;SDS011;2218;51.408;7.208;2023-02-22T05:58:48;1.00;;;0.90;;
4409;SDS011;2218;51.408;7.208;2023-02-22T06:01:15;0.83;;;0.83;;
4409;SDS011;2218;51.408;7.208;2023-02-22T06:03:44;1.10;;;1.00;;
4409;SDS011;2218;51.408;7.208;2023-02-22T06:06:14;1.00;;;0.90;;
4409;SDS011;2218;51.408;7.208;2023-02-22T06:08:44;1.07;;;1.00;;
4409;SDS011;2218;51.408;7.208;2023-02-22T06:11:11;1.10;;;1.00;;
4409;SDS011;2218;51.408;7.208;2023-02-22T06:13:39;1.00;;;0.90;;
4409;SDS011;2218;51.408;7.208;2023-02-22T06:16:06;0.80;;;0.80;;
4409;SDS011;2218;51.408;7.208;2023-02-22T06:18:33;0.90;;;0.90;;
4409;SDS011;2218;51.408;7.208;2023-02-22T06:21:00;1.37;;;1.27;;
4409;SDS011;2218;51.408;7.208;2023-02-22T06:23:28;1.00;;;0.90;;
4409;SDS011;2218;51.408;7.208;2023-02-22T06:25:55;0.90;;;0.90;;
4409;SDS011;2218;51.408;7.208;2023-02-22T06:28:22;0.80;;;0.80;;
4409;SDS011;2218;51.408;7.208;2023-02-22T06:30:50;0.80;;;0.80;;
4409;SDS011;2218;51.408;7.208;2023-02-22T06:33:17;0.77;;;0.70;;
4409;SDS011;2218;51.408;7.208;2023-02-22T06:35:44;0.97;;;0.93;;
4409;SDS011;2218;51.408;7.208;2023-02-22T06:38:11;0.90;;;0.90;;
4409;SDS011;2218;51.408;7.208;2023-02-22T06:40:48;0.90;;;0.73;;
4409;SDS011;2218;51.408;7.208;2023-02-22T06:43:15;0.80;;;0.77;;
4409;SDS011;2218;51.408;7.208;2023-02-22T06:45:42;0.97;;;0.90;;
4409;SDS011;2218;51.408;7.208;2023-02-22T06:48:09;0.70;;;0.67;;
4409;SDS011;2218;51.408;7.208;2023-02-22T06:50:36;1.00;;;0.90;;
4409;SDS011;2218;51.408;7.208;2023-02-22T06:53:03;0.80;;;0.73;;
4409;SDS011;2218;51.408;7.208;2023-02-22T06:55:31;0.80;;;0.60;;
4409;SDS011;2218;51.408;7.208;2023-02-22T06:58:02;0.70;;;0.70;;
4409;SDS011;2218;51.408;7.208;2023-02-22T07:00:30;0.80;;;0.70;;
4409;SDS011;2218;51.408;7.208;2023-02-22T07:02:58;0.80;;;0.70;;
4409;SDS011;2218;51.408;7.208;2023-02-22T07:05:26;0.80;;;0.73;;
4409;SDS011;2218;51.408;7.208;2023-02-22T07:07:54;0.70;;;0.70;;
4409;SDS011;2218;51.408;7.208;2023-02-22T07:10:29;1.00;;;0.90;;
4409;SDS011;2218;51.408;7.208;2023-02-22T07:12:57;0.87;;;0.70;;
4409;SDS011;2218;51.408;7.208;2023-02-22T07:15:27;0.90;;;0.80;;
4409;SDS011;2218;51.408;7.208;2023-02-22T07:17:56;1.00;;;0.60;;
4409;SDS011;2218;51.408;7.208;2023-02-22T07:20:25;0.90;;;0.80;;
4409;SDS011;2218;51.408;7.208;2023-02-22T07:22:54;0.83;;;0.83;;
4409;SDS011;2218;51.408;7.208;2023-02-22T07:25:21;0.87;;;0.80;;
4409;SDS011;2218;51.408;7.208;2023-02-22T07:27:49;0.70;;;0.60;;
4409;SDS011;2218;51.408;7.208;2023-02-22T07:30:17;0.80;;;0.70;;
4409;SDS011;2218;51.408;7.208;2023-02-22T07:32:50;0.80;;;0.70;;
4409;SDS011;2218;51.408;7.208;2023-02-22T07:35:20;0.90;;;0.80;;
4409;SDS011;2218;51.408;7.208;2023-02-22T07:37:49;0.70;;;0.60;;
4409;SDS011;2218;51.408;7.208;2023-02-22T07:40:16;0.70;;;0.60;;
4409;SDS011;2218;51.408;7.208;2023-02-22T07:42:51;0.77;;;0.70;;
4409;SDS011;2218;51.408;7.208;2023-02-22T07:45:20;0.80;;;0.77;;
4409;SDS011;2218;51.408;7.208;2023-02-22T07:47:48;0.70;;;0.60;;
4409;SDS011;2218;51.408;7.208;2023-02-22T07:50:17;0.70;;;0.60;;
4409;SDS011;2218;51.408;7.208;2023-02-22T07:52:46;0.80;;;0.70;;
4409;SDS011;2218;51.408;7.208;2023-02-22T07:55:16;0.80;;;0.70;;
4409;SDS011;2218;51.408;7.208;2023-02-22T07:57:46;0.70;;;0.60;;
4409;SDS011;2218;51.408;7.208;2023-02-22T08:00:14;0.70;;;0.60;;
4409;SDS011;2218;51.408;7.208;2023-02-22T08:02:47;0.70;;;0.60;;
4409;SDS011;2218;51.408;7.208;2023-02-22T08:05:14;0.70;;;0.70;;
4409;SDS011;2218;51.408;7.208;2023-02-22T08:07:43;0.80;;;0.70;;
4409;SDS011;2218;51.408;7.208;2023-02-22T08:10:10;0.93;;;0.60;;
4409;SDS011;2218;51.408;7.208;2023-02-22T08:12:39;0.80;;;0.80;;
4409;SDS011;2218;51.408;7.208;2023-02-22T08:15:07;0.80;;;0.80;;
4409;SDS011;2218;51.408;7.208;2023-02-22T08:17:41;0.80;;;0.80;;
4409;SDS011;2218;51.408;7.208;2023-02-22T08:20:08;0.70;;;0.60;;
4409;SDS011;2218;51.408;7.208;2023-02-22T08:22:37;0.70;;;0.60;;
4409;SDS011;2218;51.408;7.208;2023-02-22T08:25:05;0.70;;;0.60;;
4409;SDS011;2218;51.408;7.208;2023-02-22T08:27:32;1.90;;;0.73;;
4409;SDS011;2218;51.408;7.208;2023-02-22T08:29:59;2.60;;;0.80;;
4409;SDS011;2218;51.408;7.208;2023-02-22T08:32:26;0.70;;;0.60;;
4409;SDS011;2218;51.408;7.208;2023-02-22T08:34:53;0.80;;;0.80;;
4409;SDS011;2218;51.408;7.208;2023-02-22T08:37:20;0.70;;;0.60;;
4409;SDS011;2218;51.408;7.208;2023-02-22T08:39:48;0.80;;;0.70;;
4409;SDS011;2218;51.408;7.208;2023-02-22T08:42:15;0.80;;;0.70;;
4409;SDS011;2218;51.408;7.208;2023-02-22T08:44:42;0.80;;;0.70;;
4409;SDS011;2218;51.408;7.208;2023-02-22T08:47:09;0.80;;;0.73;;
4409;SDS011;2218;51.408;7.208;2023-02-22T08:49:36;0.90;;;0.80;;
4409;SDS011;2218;51.408;7.208;2023-02-22T08:52:03;0.70;;;0.60;;
4409;SDS011;2218;51.408;7.208;2023-02-22T08:54:30;0.80;;;0.60;;
4409;SDS011;2218;51.408;7.208;2023-02-22T08:56:58;0.80;;;0.70;;
4409;SDS011;2218;51.408;7.208;2023-02-22T08:59:25;1.37;;;0.80;;
4409;SDS011;2218;51.408;7.208;2023-02-22T09:01:52;4.00;;;0.90;;
4409;SDS011;2218;51.408;7.208;2023-02-22T09:04:19;0.90;;;0.60;;
4409;SDS011;2218;51.408;7.208;2023-02-22T09:06:46;4.70;;;0.80;;
4409;SDS011;2218;51.408;7.208;2023-02-22T09:09:16;1.73;;;0.70;;
4409;SDS011;2218;51.408;7.208;2023-02-22T09:11:45;0.80;;;0.70;;
4409;SDS011;2218;51.408;7.208;2023-02-22T09:14:14;0.73;;;0.63;;
4409;SDS011;2218;51.408;7.208;2023-02-22T09:16:42;0.80;;;0.73;;
4409;SDS011;2218;51.408;7.208;2023-02-22T09:19:10;0.87;;;0.87;;
4409;SDS011;2218;51.408;7.208;2023-02-22T09:21:37;0.80;;;0.70;;
4409;SDS011;2218;51.408;7.208;2023-02-22T09:24:05;0.80;;;0.80;;
4409;SDS011;2218;51.408;7.208;2023-02-22T09:26:33;4.40;;;0.60;;
4409;SDS011;2218;51.408;7.208;2023-02-22T09:29:03;2.17;;;0.80;;
4409;SDS011;2218;51.408;7.208;2023-02-22T09:31:35;2.03;;;0.70;;
4409;SDS011;2218;51.408;7.208;2023-02-22T09:34:03;0.80;;;0.60;;
4409;SDS011;2218;51.408;7.208;2023-02-22T09:36:38;1.27;;;0.77;;
4409;SDS011;2218;51.408;7.208;2023-02-22T09:39:05;0.93;;;0.80;;
4409;SDS011;2218;51.408;7.208;2023-02-22T09:41:34;1.17;;;0.80;;
4409;SDS011;2218;51.408;7.208;2023-02-22T09:44:15;1.47;;;1.07;;
4409;SDS011;2218;51.408;7.208;2023-02-22T09:46:55;4.20;;;0.90;;
4409;SDS011;2218;51.408;7.208;2023-02-22T09:49:26;1.53;;;0.70;;
4409;SDS011;2218;51.408;7.208;2023-02-22T09:52:02;0.70;;;0.60;;
4409;SDS011;2218;51.408;7.208;2023-02-22T09:54:39;0.70;;;0.60;;
4409;SDS011;2218;51.408;7.208;2023-02-22T09:57:17;2.13;;;0.80;;
4409;SDS011;2218;51.408;7.208;2023-02-22T09:59:56;1.07;;;0.50;;
4409;SDS011;2218;51.408;7.208;2023-02-22T10:02:39;0.80;;;0.70;;
4409;SDS011;2218;51.408;7.208;2023-02-22T10:05:18;0.70;;;0.70;;
4409;SDS011;2218;51.408;7.208;2023-02-22T10:07:52;0.77;;;0.60;;
4409;SDS011;2218;51.408;7.208;2023-02-22T10:10:30;1.93;;;0.67;;
4409;SDS011;2218;51.408;7.208;2023-02-22T10:13:03;3.80;;;0.73;;
4409;SDS011;2218;51.408;7.208;2023-02-22T10:15:49;0.70;;;0.70;;
4409;SDS011;2218;51.408;7.208;2023-02-22T10:18:31;1.27;;;0.63;;
4409;SDS011;2218;51.408;7.208;2023-02-22T10:21:19;0.80;;;0.70;;
4409;SDS011;2218;51.408;7.208;2023-02-22T10:24:09;0.73;;;0.60;;
4409;SDS011;2218;51.408;7.208;2023-02-22T10:26:50;0.80;;;0.80;;
4409;SDS011;2218;51.408;7.208;2023-02-22T10:29:22;0.80;;;0.80;;
4409;SDS011;2218;51.408;7.208;2023-02-22T10:31:58;0.90;;;0.80;;
4409;SDS011;2218;51.408;7.208;2023-02-22T10:34:31;0.80;;;0.77;;
4409;SDS011;2218;51.408;7.208;2023-02-22T10:37:09;0.70;;;0.60;;
4409;SDS011;2218;51.408;7.208;2023-02-22T10:39:47;1.17;;;0.90;;
4409;SDS011;2218;51.408;7.208;2023-02-22T10:42:18;1.03;;;0.97;;
4409;SDS011;2218;51.408;7.208;2023-02-22T10:44:51;1.30;;;0.90;;
4409;SDS011;2218;51.408;7.208;2023-02-22T10:47:18;1.53;;;0.77;;
4409;SDS011;2218;51.408;7.208;2023-02-22T10:49:48;1.37;;;0.90;;
4409;SDS011;2218;51.408;7.208;2023-02-22T10:52:23;3.57;;;0.80;;
4409;SDS011;2218;51.408;7.208;2023-02-22T10:54:54;1.00;;;0.80;;
4409;SDS011;2218;51.408;7.208;2023-02-22T10:57:24;1.33;;;0.87;;
4409;SDS011;2218;51.408;7.208;2023-02-22T10:59:55;0.80;;;0.70;;
4409;SDS011;2218;51.408;7.208;2023-02-22T11:02:23;2.90;;;0.80;;
4409;SDS011;2218;51.408;7.208;2023-02-22T11:04:58;1.00;;;0.80;;
4409;SDS011;2218;51.408;7.208;2023-02-22T11:07:27;0.80;;;0.80;;
4409;SDS011;2218;51.408;7.208;2023-02-22T11:09:57;3.90;;;0.90;;
4409;SDS011;2218;51.408;7.208;2023-02-22T11:12:28;11.40;;;1.10;;
4409;SDS011;2218;51.408;7.208;2023-02-22T11:14:59;1.93;;;1.40;;
4409;SDS011;2218;51.408;7.208;2023-02-22T11:17:53;0.80;;;0.70;;
4409;SDS011;2218;51.408;7.208;2023-02-22T11:20:27;1.93;;;0.67;;
4409;SDS011;2218;51.408;7.208;2023-02-22T11:23:00;1.67;;;1.00;;
4409;SDS011;2218;51.408;7.208;2023-02-22T11:25:32;0.90;;;0.80;;
4409;SDS011;2218;51.408;7.208;2023-02-22T11:28:05;2.50;;;0.87;;
4409;SDS011;2218;51.408;7.208;2023-02-22T11:30:39;1.10;;;0.70;;
4409;SDS011;2218;51.408;7.208;2023-02-22T11:33:09;0.90;;;0.70;;
4409;SDS011;2218;51.408;7.208;2023-02-22T11:35:50;1.67;;;0.80;;
4409;SDS011;2218;51.408;7.208;2023-02-22T11:38:20;1.77;;;0.93;;
4409;SDS011;2218;51.408;7.208;2023-02-22T11:43:42;0.77;;;0.63;;
4409;SDS011;2218;51.408;7.208;2023-02-22T11:46:12;0.70;;;0.60;;
4409;SDS011;2218;51.408;7.208;2023-02-22T11:48:44;0.80;;;0.70;;
4409;SDS011;2218;51.408;7.208;2023-02-22T11:51:36;0.70;;;0.60;;
4409;SDS011;2218;51.408;7.208;2023-02-22T11:54:21;1.13;;;0.80;;
4409;SDS011;2218;51.408;7.208;2023-02-22T11:57:14;0.70;;;0.60;;
4409;SDS011;2218;51.408;7.208;2023-02-22T12:00:02;0.70;;;0.60;;
4409;SDS011;2218;51.408;7.208;2023-02-22T12:02:53;2.90;;;0.73;;
4409;SDS011;2218;51.408;7.208;2023-02-22T12:05:49;0.80;;;0.70;;
4409;SDS011;2218;51.408;7.208;2023-02-22T12:08:38;1.33;;;0.80;;
4409;SDS011;2218;51.408;7.208;2023-02-22T12:11:16;0.80;;;0.70;;
4409;SDS011;2218;51.408;7.208;2023-02-22T12:13:55;0.70;;;0.60;;
4409;SDS011;2218;51.408;7.208;2023-02-22T12:16:41;3.83;;;0.80;;
4409;SDS011;2218;51.408;7.208;2023-02-22T12:19:29;0.80;;;0.60;;
4409;SDS011;2218;51.408;7.208;2023-02-22T12:22:04;0.70;;;0.60;;
4409;SDS011;2218;51.408;7.208;2023-02-22T12:24:38;0.70;;;0.60;;
4409;SDS011;2218;51.408;7.208;2023-02-22T12:27:12;0.83;;;0.60;;
4409;SDS011;2218;51.408;7.208;2023-02-22T12:29:51;0.80;;;0.70;;
4409;SDS011;2218;51.408;7.208;2023-02-22T12:32:28;1.10;;;0.60;;
4409;SDS011;2218;51.408;7.208;2023-02-22T12:35:08;0.97;;;0.60;;
4409;SDS011;2218;51.408;7.208;2023-02-22T12:37:47;0.90;;;0.60;;
4409;SDS011;2218;51.408;7.208;2023-02-22T12:40:29;0.70;;;0.60;;
4409;SDS011;2218;51.408;7.208;2023-02-22T12:43:03;0.80;;;0.70;;
4409;SDS011;2218;51.408;7.208;2023-02-22T12:45:42;1.23;;;0.70;;
4409;SDS011;2218;51.408;7.208;2023-02-22T12:48:23;0.70;;;0.60;;
4409;SDS011;2218;51.408;7.208;2023-02-22T12:51:02;0.70;;;0.63;;
4409;SDS011;2218;51.408;7.208;2023-02-22T12:53:45;0.70;;;0.57;;
4409;SDS011;2218;51.408;7.208;2023-02-22T12:56:24;1.17;;;0.70;;
4409;SDS011;2218;51.408;7.208;2023-02-22T12:58:58;0.70;;;0.57;;
4409;SDS011;2218;51.408;7.208;2023-02-22T13:01:35;2.10;;;0.70;;
4409;SDS011;2218;51.408;7.208;2023-02-22T13:04:06;1.30;;;0.70;;
4409;SDS011;2218;51.408;7.208;2023-02-22T13:06:38;0.87;;;0.63;;
4409;SDS011;2218;51.408;7.208;2023-02-22T13:09:31;0.90;;;0.70;;
4409;SDS011;2218;51.408;7.208;2023-02-22T13:12:26;0.80;;;0.60;;
4409;SDS011;2218;51.408;7.208;2023-02-22T13:15:08;0.70;;;0.70;;
4409;SDS011;2218;51.408;7.208;2023-02-22T13:17:47;1.30;;;0.70;;
4409;SDS011;2218;51.408;7.208;2023-02-22T13:20:27;0.80;;;0.80;;
4409;SDS011;2218;51.408;7.208;2023-02-22T13:23:02;1.30;;;0.63;;
4409;SDS011;2218;51.408;7.208;2023-02-22T13:25:40;0.77;;;0.60;;
4409;SDS011;2218;51.408;7.208;2023-02-22T13:28:18;0.90;;;0.80;;
4409;SDS011;2218;51.408;7.208;2023-02-22T13:31:01;0.77;;;0.70;;
4409;SDS011;2218;51.408;7.208;2023-02-22T13:33:50;0.70;;;0.60;;
4409;SDS011;2218;51.408;7.208;2023-02-22T13:36:44;0.70;;;0.60;;
4409;SDS011;2218;51.408;7.208;2023-02-22T13:42:50;4.30;;;0.70;;
4409;SDS011;2218;51.408;7.208;2023-02-22T13:46:12;0.70;;;0.50;;
4409;SDS011;2218;51.408;7.208;2023-02-22T13:49:11;0.70;;;0.50;;
4409;SDS011;2218;51.408;7.208;2023-02-22T13:51:55;0.77;;;0.60;;
4409;SDS011;2218;51.408;7.208;2023-02-22T13:54:27;0.90;;;0.77;;
4409;SDS011;2218;51.408;7.208;2023-02-22T13:57:03;1.47;;;0.70;;
4409;SDS011;2218;51.408;7.208;2023-02-22T13:59:45;0.83;;;0.83;;
4409;SDS011;2218;51.408;7.208;2023-02-22T14:05:33;1.47;;;0.80;;
4409;SDS011;2218;51.408;7.208;2023-02-22T14:14:24;4.40;;;0.80;;
4409;SDS011;2218;51.408;7.208;2023-02-22T14:22:57;0.80;;;0.50;;
4409;SDS011;2218;51.408;7.208;2023-02-22T14:25:54;1.40;;;0.80;;
4409;SDS011;2218;51.408;7.208;2023-02-22T14:28:32;0.80;;;0.70;;
4409;SDS011;2218;51.408;7.208;2023-02-22T14:31:05;1.00;;;0.70;;
4409;SDS011;2218;51.408;7.208;2023-02-22T14:36:34;1.73;;;0.80;;
4409;SDS011;2218;51.408;7.208;2023-02-22T14:39:18;1.07;;;0.97;;
4409;SDS011;2218;51.408;7.208;2023-02-22T14:41:56;0.70;;;0.70;;
4409;SDS011;2218;51.408;7.208;2023-02-22T14:44:31;1.00;;;0.80;;
4409;SDS011;2218;51.408;7.208;2023-02-22T14:47:06;0.90;;;0.63;;
4409;SDS011;2218;51.408;7.208;2023-02-22T14:49:45;0.80;;;0.80;;
4409;SDS011;2218;51.408;7.208;2023-02-22T14:52:20;0.80;;;0.70;;
4409;SDS011;2218;51.408;7.208;2023-02-22T14:54:54;0.73;;;0.70;;
4409;SDS011;2218;51.408;7.208;2023-02-22T14:57:45;0.80;;;0.63;;
4409;SDS011;2218;51.408;7.208;2023-02-22T15:00:21;1.10;;;0.70;;
4409;SDS011;2218;51.408;7.208;2023-02-22T15:02:56;0.80;;;0.77;;
4409;SDS011;2218;51.408;7.208;2023-02-22T15:05:27;0.70;;;0.63;;
4409;SDS011;2218;51.408;7.208;2023-02-22T15:08:04;0.70;;;0.70;;
4409;SDS011;2218;51.408;7.208;2023-02-22T15:10:38;0.80;;;0.80;;
4409;SDS011;2218;51.408;7.208;2023-02-22T15:13:12;0.90;;;0.90;;
4409;SDS011;2218;51.408;7.208;2023-02-22T15:15:44;0.80;;;0.60;;
4409;SDS011;2218;51.408;7.208;2023-02-22T15:18:23;0.80;;;0.60;;
4409;SDS011;2218;51.408;7.208;2023-02-22T15:21:01;0.80;;;0.60;;
4409;SDS011;2218;51.408;7.208;2023-02-22T15:23:39;0.93;;;0.73;;
4409;SDS011;2218;51.408;7.208;2023-02-22T15:26:14;0.80;;;0.70;;
4409;SDS011;2218;51.408;7.208;2023-02-22T15:28:45;1.10;;;1.00;;
4409;SDS011;2218;51.408;7.208;2023-02-22T15:31:24;1.20;;;0.80;;
4409;SDS011;2218;51.408;7.208;2023-02-22T15:33:56;0.77;;;0.70;;
4409;SDS011;2218;51.408;7.208;2023-02-22T15:36:36;0.70;;;0.53;;
4409;SDS011;2218;51.408;7.208;2023-02-22T15:39:03;5.17;;;0.73;;
4409;SDS011;2218;51.408;7.208;2023-02-22T15:41:33;0.77;;;0.70;;
4409;SDS011;2218;51.408;7.208;2023-02-22T15:44:03;0.70;;;0.60;;
4409;SDS011;2218;51.408;7.208;2023-02-22T15:46:35;0.70;;;0.57;;
4409;SDS011;2218;51.408;7.208;2023-02-22T15:49:04;0.70;;;0.53;;
4409;SDS011;2218;51.408;7.208;2023-02-22T15:51:46;0.80;;;0.70;;
4409;SDS011;2218;51.408;7.208;2023-02-22T15:54:29;18.40;;;1.83;;
4409;SDS011;2218;51.408;7.208;2023-02-22T15:57:06;17.77;;;2.00;;
4409;SDS011;2218;51.408;7.208;2023-02-22T15:59:38;15.27;;;2.63;;
4409;SDS011;2218;51.408;7.208;2023-02-22T16:05:06;22.53;;;2.87;;
4409;SDS011;2218;51.408;7.208;2023-02-22T16:07:39;16.47;;;1.83;;
4409;SDS011;2218;51.408;7.208;2023-02-22T16:10:22;17.20;;;2.20;;
4409;SDS011;2218;51.408;7.208;2023-02-22T16:13:03;12.80;;;1.87;;
4409;SDS011;2218;51.408;7.208;2023-02-22T16:15:34;17.43;;;2.10;;
4409;SDS011;2218;51.408;7.208;2023-02-22T16:20:58;10.90;;;1.70;;
4409;SDS011;2218;51.408;7.208;2023-02-22T16:23:30;7.83;;;1.50;;
4409;SDS011;2218;51.408;7.208;2023-02-22T16:26:19;14.90;;;1.70;;